createdAt,value
2019-03-23T00:00:50.326Z,10.00
2019-03-23T00:03:19.803Z,9.47
2019-03-23T00:05:49.324Z,9.80
2019-03-23T00:08:18.779Z,8.43
2019-03-23T00:10:48.266Z,8.00
2019-03-23T00:13:17.710Z,9.33
2019-03-23T00:15:47.225Z,9.50
2019-03-23T00:18:16.663Z,8.10
2019-03-23T00:20:46.210Z,9.77
2019-03-23T00:23:15.608Z,9.57
2019-03-23T00:25:45.086Z,9.37
2019-03-23T00:28:14.583Z,8.47
2019-03-23T00:30:44.034Z,8.10
2019-03-23T00:33:13.495Z,9.33
2019-03-23T00:35:42.849Z,8.97
2019-03-23T00:38:12.434Z,9.20
2019-03-23T00:40:42.370Z,9.27
2019-03-23T00:43:11.877Z,9.00
2019-03-23T00:45:41.420Z,9.20
2019-03-23T00:48:10.894Z,8.90
2019-03-23T00:50:40.272Z,9.27
2019-03-23T00:53:09.751Z,8.93
2019-03-23T00:55:39.169Z,8.87
2019-03-23T00:58:08.611Z,9.30
2019-03-23T01:00:38.193Z,10.40
2019-03-23T01:03:07.611Z,10.07
2019-03-23T01:05:37.086Z,10.17
2019-03-23T01:08:06.579Z,9.13
2019-03-23T01:10:35.983Z,9.87
2019-03-23T01:13:05.318Z,9.17
2019-03-23T01:15:34.692Z,10.03
2019-03-23T01:18:04.180Z,8.33
2019-03-23T01:20:33.529Z,9.50
2019-03-23T01:23:03.070Z,9.10
2019-03-23T01:25:32.515Z,8.50
2019-03-23T01:28:01.875Z,9.60
2019-03-23T01:30:33.684Z,8.53
2019-03-23T01:33:03.207Z,8.00
2019-03-23T01:35:32.626Z,8.73
2019-03-23T01:38:02.211Z,8.73
2019-03-23T01:40:31.725Z,8.57
2019-03-23T01:43:01.153Z,9.10
2019-03-23T01:45:30.619Z,7.77
2019-03-23T01:48:00.005Z,8.23
2019-03-23T01:50:29.861Z,9.10
2019-03-23T01:52:59.232Z,8.60
2019-03-23T01:55:28.749Z,8.13
2019-03-23T01:57:58.130Z,8.63
2019-03-23T02:00:28.298Z,9.13
2019-03-23T02:02:57.652Z,7.80
2019-03-23T02:05:28.095Z,9.20
2019-03-23T02:07:58.034Z,10.00
2019-03-23T02:10:27.950Z,9.20
2019-03-23T02:12:57.526Z,11.50
2019-03-23T02:15:27.024Z,10.80
2019-03-23T02:17:56.604Z,11.10
2019-03-23T02:20:26.124Z,10.83
2019-03-23T02:22:55.574Z,9.80
2019-03-23T02:25:25.060Z,10.23
2019-03-23T02:27:54.457Z,10.23
2019-03-23T02:30:24.037Z,8.50
2019-03-23T02:32:53.485Z,8.77
2019-03-23T02:35:22.852Z,8.23
2019-03-23T02:37:52.204Z,8.93
2019-03-23T02:40:21.802Z,8.30
2019-03-23T02:42:51.184Z,8.33
2019-03-23T02:45:20.637Z,9.27
2019-03-23T02:47:50.097Z,8.43
2019-03-23T02:50:19.542Z,8.93
2019-03-23T02:52:49.090Z,9.10
2019-03-23T02:55:18.527Z,8.33
2019-03-23T02:57:47.911Z,8.23
2019-03-23T03:00:17.424Z,9.07
2019-03-23T03:02:46.931Z,10.40
2019-03-23T03:05:16.501Z,10.77
2019-03-23T03:07:46.873Z,10.70
2019-03-23T03:10:36.327Z,10.87
2019-03-23T03:13:05.746Z,9.57
2019-03-23T03:15:35.423Z,10.53
2019-03-23T03:18:05.160Z,9.47
2019-03-23T03:20:34.513Z,9.37
2019-03-23T03:23:03.842Z,9.53
2019-03-23T03:25:33.670Z,9.17
2019-03-23T03:28:03.176Z,9.30
2019-03-23T03:30:32.780Z,9.77
2019-03-23T03:33:02.274Z,9.33
2019-03-23T03:35:32.324Z,9.17
2019-03-23T03:38:02.119Z,9.23
2019-03-23T03:40:34.185Z,8.50
2019-03-23T03:43:03.699Z,9.67
2019-03-23T03:45:38.492Z,9.60
2019-03-23T03:48:10.248Z,9.67
2019-03-23T03:50:40.464Z,8.60
2019-03-23T03:53:10.102Z,8.90
2019-03-23T03:55:39.793Z,9.57
2019-03-23T03:58:09.201Z,8.80
2019-03-23T04:00:38.696Z,9.00
2019-03-23T04:03:08.078Z,9.10
2019-03-23T04:05:37.597Z,9.30
2019-03-23T04:08:11.741Z,10.83
2019-03-23T04:10:38.179Z,9.47
2019-03-23T04:13:07.549Z,9.57
2019-03-23T04:15:37.067Z,11.13
2019-03-23T04:18:06.569Z,11.83
2019-03-23T04:20:35.964Z,13.40
2019-03-23T04:23:05.375Z,14.20
2019-03-23T04:25:34.749Z,15.10
2019-03-23T04:28:04.206Z,13.97
2019-03-23T04:30:33.719Z,14.30
2019-03-23T04:33:09.220Z,15.13
2019-03-23T04:35:38.656Z,14.93
2019-03-23T04:38:08.087Z,15.03
2019-03-23T04:40:37.706Z,14.30
2019-03-23T04:43:07.037Z,15.03
2019-03-23T04:45:36.573Z,12.37
2019-03-23T04:48:05.947Z,12.17
2019-03-23T04:50:35.377Z,10.80
2019-03-23T04:53:04.827Z,9.43
2019-03-23T04:55:34.179Z,11.23
2019-03-23T04:58:04.188Z,10.83
2019-03-23T05:00:33.797Z,10.20
2019-03-23T05:03:03.181Z,10.90
2019-03-23T05:05:32.514Z,9.17
2019-03-23T05:08:02.035Z,9.30
2019-03-23T05:10:31.564Z,10.30
2019-03-23T05:13:01.070Z,9.90
2019-03-23T05:15:30.507Z,10.67
2019-03-23T05:17:59.982Z,12.03
2019-03-23T05:20:33.380Z,10.70
2019-03-23T05:23:03.486Z,10.53
2019-03-23T05:25:39.720Z,11.53
2019-03-23T05:28:09.149Z,11.30
2019-03-23T05:30:38.530Z,12.70
2019-03-23T05:33:08.021Z,13.67
2019-03-23T05:35:37.370Z,14.83
2019-03-23T05:38:06.946Z,15.73
2019-03-23T05:40:36.528Z,15.70
2019-03-23T05:43:05.936Z,16.40
2019-03-23T05:45:35.442Z,14.50
2019-03-23T05:48:04.810Z,16.73
2019-03-23T05:50:34.186Z,13.07
2019-03-23T05:53:03.546Z,12.33
2019-03-23T05:55:33.118Z,12.50
2019-03-23T05:58:02.473Z,12.20
2019-03-23T06:00:31.952Z,12.90
2019-03-23T06:03:01.329Z,10.57
2019-03-23T06:05:30.772Z,10.93
2019-03-23T06:08:00.370Z,11.13
2019-03-23T06:10:29.933Z,12.70
2019-03-23T06:12:59.454Z,9.53
2019-03-23T06:15:29.084Z,9.83
2019-03-23T06:17:58.634Z,12.17
2019-03-23T06:20:28.217Z,10.57
2019-03-23T06:22:57.748Z,11.00
2019-03-23T06:25:34.277Z,10.20
2019-03-23T06:28:03.721Z,8.83
2019-03-23T06:30:33.158Z,8.87
2019-03-23T06:33:02.622Z,10.90
2019-03-23T06:35:32.058Z,9.40
2019-03-23T06:38:01.542Z,9.80
2019-03-23T06:40:30.987Z,9.47
2019-03-23T06:43:00.370Z,8.93
2019-03-23T06:45:29.924Z,9.60
2019-03-23T06:47:59.304Z,9.97
2019-03-23T06:50:28.727Z,9.67
2019-03-23T06:52:58.212Z,9.93
2019-03-23T06:55:27.754Z,10.67
2019-03-23T06:57:57.129Z,9.83
2019-03-23T07:00:26.477Z,10.00
2019-03-23T07:02:55.853Z,10.20
2019-03-23T07:05:25.372Z,10.30
2019-03-23T07:07:54.706Z,10.40
2019-03-23T07:10:24.232Z,10.47
2019-03-23T07:12:53.707Z,10.57
2019-03-23T07:15:23.209Z,11.60
2019-03-23T07:17:52.596Z,12.27
2019-03-23T07:20:21.997Z,13.27
2019-03-23T07:22:51.406Z,10.40
2019-03-23T07:25:20.980Z,11.20
2019-03-23T07:27:50.308Z,11.63
2019-03-23T07:30:19.717Z,11.00
2019-03-23T07:32:49.125Z,12.00
2019-03-23T07:35:18.604Z,13.60
2019-03-23T07:37:48.107Z,11.80
2019-03-23T07:40:17.611Z,11.07
2019-03-23T07:42:47.133Z,10.53
2019-03-23T07:45:16.893Z,9.83
2019-03-23T07:47:46.273Z,10.73
2019-03-23T07:50:15.844Z,10.13
2019-03-23T07:52:45.394Z,10.70
2019-03-23T07:55:15.198Z,11.40
2019-03-23T07:57:44.740Z,10.90
2019-03-23T08:00:19.750Z,10.93
2019-03-23T08:02:49.195Z,12.10
2019-03-23T08:05:18.684Z,10.60
2019-03-23T08:07:48.247Z,13.17
2019-03-23T08:10:28.489Z,13.60
2019-03-23T08:12:58.635Z,14.20
2019-03-23T08:15:28.254Z,15.20
2019-03-23T08:17:57.685Z,16.80
2019-03-23T08:20:27.057Z,18.40
2019-03-23T08:22:56.831Z,19.40
2019-03-23T08:25:26.375Z,23.00
2019-03-23T08:27:55.868Z,26.87
2019-03-23T08:30:25.336Z,24.87
2019-03-23T08:32:54.726Z,29.90
2019-03-23T08:35:24.054Z,33.93
2019-03-23T08:37:53.560Z,34.30
2019-03-23T08:40:22.927Z,35.17
2019-03-23T08:42:52.376Z,35.43
2019-03-23T08:45:21.959Z,39.30
2019-03-23T08:47:51.408Z,37.67
2019-03-23T08:50:20.925Z,32.87
2019-03-23T08:52:50.410Z,32.10
2019-03-23T08:55:21.882Z,36.00
2019-03-23T08:57:51.053Z,36.00
2019-03-23T09:00:20.571Z,33.90
2019-03-23T09:02:49.896Z,35.87
2019-03-23T09:05:19.404Z,34.87
2019-03-23T09:07:48.743Z,36.83
2019-03-23T09:10:18.221Z,36.90
2019-03-23T09:12:47.600Z,37.33
2019-03-23T09:15:17.040Z,38.57
2019-03-23T09:17:46.517Z,37.33
2019-03-23T09:20:16.105Z,42.83
2019-03-23T09:22:45.574Z,40.53
2019-03-23T09:25:15.167Z,43.00
2019-03-23T09:27:44.524Z,41.43
2019-03-23T09:30:13.944Z,41.10
2019-03-23T09:32:43.411Z,41.30
2019-03-23T09:35:13.007Z,42.43
2019-03-23T09:37:42.738Z,41.20
2019-03-23T09:40:12.355Z,40.47
2019-03-23T09:42:41.741Z,40.93
2019-03-23T09:45:11.101Z,41.07
2019-03-23T09:47:40.534Z,41.40
2019-03-23T09:50:09.989Z,41.30
2019-03-23T09:52:39.420Z,42.63
2019-03-23T09:55:08.793Z,42.40
2019-03-23T09:57:38.325Z,40.30
2019-03-23T10:00:08.270Z,42.30
2019-03-23T10:02:37.819Z,42.03
2019-03-23T10:05:07.440Z,44.60
2019-03-23T10:07:36.947Z,45.20
2019-03-23T10:10:06.888Z,44.60
2019-03-23T10:12:36.274Z,42.37
2019-03-23T10:15:06.172Z,44.50
2019-03-23T10:17:35.600Z,44.17
2019-03-23T10:20:05.307Z,44.30
2019-03-23T10:22:34.814Z,44.63
2019-03-23T10:25:04.350Z,44.70
2019-03-23T10:27:33.823Z,44.77
2019-03-23T10:30:03.248Z,44.17
2019-03-23T10:32:32.875Z,46.57
2019-03-23T10:35:02.327Z,43.20
2019-03-23T10:37:31.733Z,43.07
2019-03-23T10:40:01.183Z,44.57
2019-03-23T10:42:30.578Z,42.90
2019-03-23T10:45:00.310Z,44.63
2019-03-23T10:47:29.834Z,41.20
2019-03-23T10:49:59.279Z,41.33
2019-03-23T10:52:28.702Z,39.97
2019-03-23T10:54:58.217Z,42.87
2019-03-23T10:57:27.598Z,38.47
2019-03-23T10:59:57.009Z,38.97
2019-03-23T11:02:26.521Z,38.10
2019-03-23T11:04:55.885Z,35.93
2019-03-23T11:07:25.413Z,38.90
2019-03-23T11:09:54.841Z,37.27
2019-03-23T11:12:24.329Z,36.20
2019-03-23T11:14:53.746Z,36.00
2019-03-23T11:17:23.537Z,35.83
2019-03-23T11:19:53.040Z,33.43
2019-03-23T11:22:22.506Z,34.47
2019-03-23T11:24:51.938Z,32.00
2019-03-23T11:27:21.367Z,34.50
2019-03-23T11:29:50.875Z,31.77
2019-03-23T11:32:20.392Z,33.20
2019-03-23T11:34:50.089Z,30.37
2019-03-23T11:37:19.541Z,33.50
2019-03-23T11:39:49.416Z,31.67
2019-03-23T11:42:19.134Z,30.77
2019-03-23T11:44:48.822Z,33.30
2019-03-23T11:47:18.453Z,30.17
2019-03-23T11:49:48.061Z,32.97
2019-03-23T11:52:17.444Z,32.60
2019-03-23T11:54:46.872Z,33.10
2019-03-23T11:57:16.479Z,31.53
2019-03-23T11:59:46.095Z,31.70
2019-03-23T12:02:15.546Z,32.33
2019-03-23T12:04:44.868Z,32.23
2019-03-23T12:07:14.394Z,31.87
2019-03-23T12:09:43.942Z,33.50
2019-03-23T12:12:13.404Z,32.47
2019-03-23T12:14:42.908Z,33.37
2019-03-23T12:17:12.518Z,31.87
2019-03-23T12:19:42.132Z,33.00
2019-03-23T12:22:11.488Z,33.03
2019-03-23T12:24:40.934Z,32.60
2019-03-23T12:27:10.331Z,32.70
2019-03-23T12:29:39.746Z,32.90
2019-03-23T12:32:09.084Z,30.67
2019-03-23T12:34:38.522Z,32.97
2019-03-23T12:37:08.078Z,32.90
2019-03-23T12:39:37.670Z,32.23
2019-03-23T12:42:07.327Z,31.60
2019-03-23T12:44:36.854Z,32.30
2019-03-23T12:47:06.304Z,33.47
2019-03-23T12:49:35.779Z,32.10
2019-03-23T12:52:05.282Z,32.50
2019-03-23T12:54:34.671Z,31.90
2019-03-23T12:57:04.174Z,34.93
2019-03-23T12:59:33.561Z,28.37
2019-03-23T13:02:03.013Z,31.03
2019-03-23T13:04:32.389Z,29.37
2019-03-23T13:07:01.815Z,31.30
2019-03-23T13:09:31.288Z,31.80
2019-03-23T13:12:00.698Z,32.43
2019-03-23T13:14:30.126Z,29.47
2019-03-23T13:16:59.535Z,30.33
2019-03-23T13:19:28.976Z,29.57
2019-03-23T13:21:58.429Z,30.97
2019-03-23T13:24:27.807Z,31.57
2019-03-23T13:26:57.423Z,30.17
2019-03-23T13:29:27.031Z,28.80
2019-03-23T13:31:56.535Z,30.27
2019-03-23T13:34:25.907Z,31.40
2019-03-23T13:36:55.393Z,27.23
2019-03-23T13:39:24.897Z,30.30
2019-03-23T13:41:54.368Z,29.40
2019-03-23T13:44:23.936Z,27.80
2019-03-23T13:46:53.413Z,30.13
2019-03-23T13:49:22.990Z,31.03
2019-03-23T13:51:54.571Z,28.33
2019-03-23T13:54:24.179Z,29.57
2019-03-23T13:56:53.860Z,28.80
2019-03-23T13:59:23.445Z,28.40
2019-03-23T14:01:52.965Z,27.67
2019-03-23T14:04:22.468Z,27.73
2019-03-23T14:06:51.934Z,28.20
2019-03-23T14:09:21.485Z,29.50
2019-03-23T14:11:55.164Z,29.77
2019-03-23T14:14:24.582Z,29.17
2019-03-23T14:16:54.082Z,28.57
2019-03-23T14:19:23.622Z,30.57
2019-03-23T14:21:53.043Z,29.10
2019-03-23T14:24:22.405Z,29.40
2019-03-23T14:26:51.809Z,30.87
2019-03-23T14:29:21.134Z,31.83
2019-03-23T14:31:50.710Z,32.93
2019-03-23T14:34:20.049Z,37.53
2019-03-23T14:36:49.475Z,32.33
2019-03-23T14:39:18.935Z,32.27
2019-03-23T14:41:48.488Z,34.50
2019-03-23T14:44:18.027Z,33.53
2019-03-23T14:46:47.467Z,33.03
2019-03-23T14:49:17.032Z,32.43
2019-03-23T14:51:46.631Z,32.03
2019-03-23T14:54:16.053Z,31.40
2019-03-23T14:56:45.471Z,31.67
2019-03-23T14:59:14.958Z,35.77
2019-03-23T15:01:44.496Z,36.77
2019-03-23T15:04:13.975Z,33.83
2019-03-23T15:06:43.636Z,36.33
2019-03-23T15:09:13.181Z,37.90
2019-03-23T15:11:42.659Z,34.77
2019-03-23T15:14:12.034Z,36.50
2019-03-23T15:16:41.351Z,37.87
2019-03-23T15:19:10.945Z,37.33
2019-03-23T15:21:40.378Z,35.80
2019-03-23T15:24:09.941Z,36.93
2019-03-23T15:26:39.435Z,37.87
2019-03-23T15:29:09.123Z,38.00
2019-03-23T15:31:38.749Z,41.33
2019-03-23T15:34:08.847Z,39.10
2019-03-23T15:36:39.142Z,40.50
2019-03-23T15:39:08.818Z,39.27
2019-03-23T15:41:38.611Z,41.63
2019-03-23T15:44:08.362Z,39.80
2019-03-23T15:46:37.927Z,40.43
2019-03-23T15:49:07.570Z,42.93
2019-03-23T15:51:37.599Z,41.10
2019-03-23T15:54:07.139Z,41.33
2019-03-23T15:56:36.726Z,41.40
2019-03-23T15:59:06.160Z,38.17
2019-03-23T16:01:35.744Z,41.43
2019-03-23T16:04:05.189Z,39.77
2019-03-23T16:06:34.552Z,39.07
2019-03-23T16:09:04.932Z,39.43
2019-03-23T16:11:34.511Z,39.50
2019-03-23T16:14:04.037Z,39.33
2019-03-23T16:16:33.519Z,41.77
2019-03-23T16:19:03.038Z,39.80
2019-03-23T16:21:32.735Z,41.47
2019-03-23T16:24:02.130Z,43.63
2019-03-23T16:26:31.662Z,47.70
2019-03-23T16:29:01.102Z,50.47
2019-03-23T16:31:30.691Z,44.87
2019-03-23T16:34:01.076Z,41.17
2019-03-23T16:36:30.454Z,42.00
2019-03-23T16:38:59.889Z,42.60
2019-03-23T16:41:29.257Z,41.17
2019-03-23T16:43:59.152Z,41.13
2019-03-23T16:46:28.833Z,46.03
2019-03-23T16:49:00.419Z,50.53
2019-03-23T16:51:30.126Z,48.73
2019-03-23T16:54:00.022Z,44.07
2019-03-23T16:56:29.638Z,45.87
2019-03-23T16:58:59.361Z,43.70
2019-03-23T17:01:29.133Z,45.27
2019-03-23T17:03:58.774Z,44.57
2019-03-23T17:06:28.507Z,43.63
2019-03-23T17:08:58.221Z,40.73
2019-03-23T17:11:27.779Z,46.07
2019-03-23T17:13:57.333Z,45.47
2019-03-23T17:16:26.793Z,44.27
2019-03-23T17:18:56.310Z,41.90
2019-03-23T17:21:26.290Z,43.03
2019-03-23T17:23:55.795Z,44.07
2019-03-23T17:26:25.269Z,42.97
2019-03-23T17:28:54.884Z,44.60
2019-03-23T17:31:24.837Z,45.10
2019-03-23T17:33:54.356Z,42.40
2019-03-23T17:36:23.851Z,44.57
2019-03-23T17:38:53.402Z,47.33
2019-03-23T17:41:22.949Z,45.43
2019-03-23T17:43:52.580Z,51.10
2019-03-23T17:46:22.183Z,46.73
2019-03-23T17:48:51.867Z,46.40
2019-03-23T17:51:23.252Z,46.53
2019-03-23T17:53:58.536Z,49.90
2019-03-23T17:56:24.046Z,47.50
2019-03-23T17:58:53.647Z,48.00
2019-03-23T18:01:23.193Z,47.60
2019-03-23T18:03:52.707Z,48.30
2019-03-23T18:06:22.139Z,46.00
2019-03-23T18:08:51.658Z,49.10
2019-03-23T18:11:21.080Z,44.90
2019-03-23T18:13:50.601Z,46.67
2019-03-23T18:16:20.227Z,47.10
2019-03-23T18:18:49.712Z,47.30
2019-03-23T18:21:19.245Z,48.27
2019-03-23T18:23:48.926Z,48.27
2019-03-23T18:26:18.593Z,48.30
2019-03-23T18:28:49.312Z,48.80
2019-03-23T18:31:18.819Z,51.10
2019-03-23T18:33:48.469Z,47.77
2019-03-23T18:36:18.149Z,46.87
2019-03-23T18:38:47.686Z,48.50
2019-03-23T18:41:17.245Z,52.00
2019-03-23T18:43:46.814Z,53.40
2019-03-23T18:46:16.425Z,53.20
2019-03-23T18:48:45.967Z,50.23
2019-03-23T18:51:15.569Z,50.37
2019-03-23T18:53:45.129Z,50.27
2019-03-23T18:56:14.683Z,49.93
2019-03-23T18:58:44.118Z,50.27
2019-03-23T19:01:13.769Z,51.07
2019-03-23T19:03:43.284Z,49.20
2019-03-23T19:06:12.785Z,48.27
2019-03-23T19:08:42.303Z,49.50
2019-03-23T19:11:12.044Z,47.50
2019-03-23T19:13:41.726Z,49.50
2019-03-23T19:16:11.174Z,46.60
2019-03-23T19:18:40.771Z,50.33
2019-03-23T19:21:10.365Z,52.60
2019-03-23T19:23:39.907Z,52.90
2019-03-23T19:26:09.456Z,50.07
2019-03-23T19:28:38.994Z,52.73
2019-03-23T19:31:08.673Z,51.10
2019-03-23T19:33:38.910Z,49.07
2019-03-23T19:36:08.913Z,52.80
2019-03-23T19:38:38.714Z,52.80
2019-03-23T19:41:08.431Z,52.87
2019-03-23T19:43:48.013Z,52.10
2019-03-23T19:46:09.703Z,50.80
2019-03-23T19:48:39.289Z,52.97
2019-03-23T19:51:08.764Z,51.03
2019-03-23T19:53:38.198Z,51.90
2019-03-23T19:56:08.354Z,50.00
2019-03-23T19:58:38.059Z,51.93
2019-03-23T20:01:07.720Z,53.50
2019-03-23T20:03:38.451Z,48.30
2019-03-23T20:06:08.030Z,52.03
2019-03-23T20:08:37.746Z,51.33
2019-03-23T20:11:07.277Z,54.03
2019-03-23T20:13:37.072Z,53.23
2019-03-23T20:16:06.811Z,54.30
2019-03-23T20:18:36.509Z,53.07
2019-03-23T20:21:06.295Z,53.90
2019-03-23T20:23:35.799Z,50.20
2019-03-23T20:26:05.313Z,50.93
2019-03-23T20:28:34.965Z,53.93
2019-03-23T20:31:04.568Z,54.17
2019-03-23T20:33:34.165Z,52.90
2019-03-23T20:36:03.711Z,53.40
2019-03-23T20:38:33.271Z,52.43
2019-03-23T20:41:02.955Z,49.57
2019-03-23T20:43:32.438Z,49.20
2019-03-23T20:46:02.060Z,48.23
2019-03-23T20:48:36.402Z,49.10
2019-03-23T20:51:05.203Z,49.13
2019-03-23T20:53:34.873Z,46.70
2019-03-23T20:56:04.438Z,48.20
2019-03-23T20:58:33.887Z,46.80
2019-03-23T21:01:03.477Z,47.93
2019-03-23T21:03:33.070Z,45.20
2019-03-23T21:06:02.562Z,47.67
2019-03-23T21:08:34.243Z,47.80
2019-03-23T21:11:03.710Z,47.77
2019-03-23T21:13:33.258Z,50.17
2019-03-23T21:16:02.969Z,48.10
2019-03-23T21:18:35.456Z,46.00
2019-03-23T21:21:05.235Z,45.10
2019-03-23T21:23:35.347Z,45.70
2019-03-23T21:26:05.364Z,42.40
2019-03-23T21:28:34.895Z,44.93
2019-03-23T21:31:04.338Z,45.27
2019-03-23T21:33:38.890Z,43.90
2019-03-23T21:36:05.454Z,41.20
2019-03-23T21:38:35.030Z,42.20
2019-03-23T21:41:04.512Z,42.37
2019-03-23T21:43:34.068Z,41.27
2019-03-23T21:46:04.696Z,40.80
2019-03-23T21:48:47.790Z,42.70
2019-03-23T21:51:20.602Z,41.30
2019-03-23T21:53:55.458Z,41.13
2019-03-23T21:56:35.921Z,40.87
2019-03-23T21:59:07.686Z,40.43
2019-03-23T22:01:37.185Z,40.50
2019-03-23T22:04:06.684Z,36.67
2019-03-23T22:06:36.199Z,41.07
2019-03-23T22:09:06.955Z,40.43
2019-03-23T22:11:36.509Z,40.67
2019-03-23T22:14:06.330Z,41.87
2019-03-23T22:16:36.396Z,39.17
2019-03-23T22:19:05.948Z,38.40
2019-03-23T22:21:35.611Z,41.20
2019-03-23T22:24:05.071Z,38.40
2019-03-23T22:26:34.545Z,37.70
2019-03-23T22:29:03.989Z,40.60
2019-03-23T22:31:33.458Z,37.40
2019-03-23T22:34:03.092Z,38.73
2019-03-23T22:36:32.614Z,39.13
2019-03-23T22:39:02.091Z,40.23
2019-03-23T22:41:31.450Z,35.10
2019-03-23T22:44:01.015Z,37.20
2019-03-23T22:46:30.530Z,37.90
2019-03-23T22:48:59.988Z,37.90
2019-03-23T22:51:29.517Z,36.13
2019-03-23T22:53:59.036Z,37.00
2019-03-23T22:56:28.875Z,37.23
2019-03-23T22:58:58.433Z,36.43
2019-03-23T23:01:27.935Z,34.87
2019-03-23T23:03:57.268Z,33.60
2019-03-23T23:06:26.701Z,35.77
2019-03-23T23:08:56.230Z,35.87
2019-03-23T23:11:25.811Z,34.57
2019-03-23T23:13:55.476Z,35.17
2019-03-23T23:16:24.956Z,32.93
2019-03-23T23:18:54.437Z,36.70
2019-03-23T23:21:23.910Z,36.23
2019-03-23T23:23:53.327Z,36.67
2019-03-23T23:26:22.725Z,35.30
2019-03-23T23:28:52.246Z,36.27
2019-03-23T23:31:21.711Z,36.90
2019-03-23T23:33:51.249Z,37.73
2019-03-23T23:36:20.755Z,35.40
2019-03-23T23:38:52.369Z,35.67
2019-03-23T23:41:21.344Z,37.97
2019-03-23T23:43:50.728Z,40.50
2019-03-23T23:46:20.085Z,36.87
2019-03-23T23:48:51.404Z,36.03
2019-03-23T23:51:20.662Z,34.67
2019-03-23T23:53:50.079Z,36.07
2019-03-23T23:56:19.596Z,32.83
2019-03-23T23:58:49.225Z,33.27
